Time;durP1;ratioP1;P1;durP2;ratioP2;P2;SDS_P1;SDS_P2;PMS_P1;PMS_P2;Temp;Humidity;BMP_temperature;BMP_pressure;BME280_temperature;BME280_humidity;BME280_pressure;Samples;Min_cycle;Max_cycle;Signal;HPM_P1;HPM_P2
2021/03/30 00:01:06;;;;;;;21.63;14.20;;;;;;;;;;4956355;29;20027;-70
2021/03/30 00:03:32;;;;;;;23.60;15.55;;;256.00;1612.80;;;;;;4956442;29;20545;-67
2021/03/30 00:05:58;;;;;;;32.28;18.08;;;;;;;;;;4956812;29;20031;-66
2021/03/30 00:08:23;;;;;;;26.30;15.27;;;256.70;1536.00;;;;;;4956553;29;20023;-70
2021/03/30 00:10:49;;;;;;;19.13;13.50;;;;;;;;;;4954634;28;20035;-70
2021/03/30 00:13:15;;;;;;;26.48;15.80;;;256.70;1536.00;;;;;;4956600;29;20471;-70
2021/03/30 00:15:41;;;;;;;85.00;36.70;;;256.60;1536.00;;;;;;4956824;29;20026;-69
2021/03/30 00:18:07;;;;;;;35.85;19.20;;;256.90;1536.00;;;;;;4956534;29;20032;-65
2021/03/30 00:20:33;;;;;;;34.78;18.73;;;256.90;1536.00;;;;;;4956025;29;20122;-70
2021/03/30 00:22:59;;;;;;;31.52;17.17;;;256.70;1561.60;;;;;;4956337;29;20167;-68
2021/03/30 00:25:25;;;;;;;23.65;13.85;;;256.80;1561.60;;;;;;4956338;29;20482;-69
2021/03/30 00:27:50;;;;;;;21.13;13.38;;;256.60;1561.60;;;;;;4956145;29;20477;-68
2021/03/30 00:30:17;;;;;;;29.30;14.75;;;256.50;1561.60;;;;;;4956263;29;20110;-70
2021/03/30 00:32:43;;;;;;;20.73;12.18;;;256.40;1561.60;;;;;;4956413;29;20055;-67
2021/03/30 00:35:09;;;;;;;20.75;11.68;;;;;;;;;;4956075;29;20047;-69
2021/03/30 00:37:36;;;;;;;17.13;11.50;;;;;;;;;;4955878;29;20023;-69
2021/03/30 00:40:04;;;;;;;21.48;12.90;;;;;;;;;;4956071;29;20027;-70
2021/03/30 00:42:30;;;;;;;22.85;14.20;;;;;;;;;;4956075;29;20027;-67
2021/03/30 00:44:57;;;;;;;25.27;14.90;;;;;;;;;;4955837;29;20118;-69
2021/03/30 00:47:23;;;;;;;25.60;14.38;;;256.20;1587.20;;;;;;4955914;29;20474;-69
2021/03/30 00:49:50;;;;;;;23.58;15.30;;;256.10;1587.20;;;;;;4955623;29;20596;-70
2021/03/30 00:52:18;;;;;;;23.88;14.02;;;256.00;1587.20;;;;;;4955803;29;20071;-63
2021/03/30 00:54:44;;;;;;;21.95;13.43;;;;;;;;;;4955910;29;20027;-70
2021/03/30 00:57:10;;;;;;;23.52;13.90;;;;;;;;;;4955575;29;20070;-68
2021/03/30 00:59:36;;;;;;;24.98;15.00;;;;;;;;;;4955679;29;20490;-68
2021/03/30 01:02:02;;;;;;;30.15;16.88;;;256.60;1536.00;;;;;;4955464;29;20544;-68
2021/03/30 01:04:29;;;;;;;22.65;13.15;;;;;;;;;;4955781;29;20031;-66
2021/03/30 01:06:55;;;;;;;19.45;12.52;;;256.50;1561.60;;;;;;4955402;29;20038;-66
2021/03/30 01:09:51;;;;;;;20.63;12.90;;;256.30;1561.60;;;;;;4955390;29;20024;-69
2021/03/30 01:12:29;;;;;;;23.35;12.68;;;256.40;1587.20;;;;;;4954086;28;20074;-69
2021/03/30 01:15:15;;;;;;;21.65;12.68;;;;;;;;;;4955846;29;20123;-63
2021/03/30 01:17:41;;;;;;;20.95;11.63;;;;;;;;;;4955283;29;20036;-63
2021/03/30 01:20:10;;;;;;;35.03;16.25;;;;;;;;;;4955104;29;20045;-67
2021/03/30 01:22:39;;;;;;;21.25;13.10;;;;;;;;;;4955035;29;20054;-70
2021/03/30 01:25:06;;;;;;;29.92;15.23;;;;;;;;;;4955193;29;20103;-63
2021/03/30 01:27:50;;;;;;;25.45;14.77;;;;;;;;;;4954839;29;20056;-69
2021/03/30 01:30:18;;;;;;;32.10;16.55;;;;;;;;;;4955225;29;20503;-62
2021/03/30 01:32:47;;;;;;;21.00;13.40;;;;;;;;;;4954889;29;20066;-70
2021/03/30 01:35:15;;;;;;;29.98;17.50;;;;;;;;;;4955140;29;20038;-66
2021/03/30 01:37:46;;;;;;;21.23;13.30;;;;;;;;;;4954666;29;20109;-67
2021/03/30 01:40:14;;;;;;;24.10;13.97;;;;;;;;;;4954680;29;20039;-69
2021/03/30 01:42:41;;;;;;;20.02;12.55;;;;;;;;;;4954708;29;20262;-63
2021/03/30 01:45:08;;;;;;;18.52;12.75;;;;;;;;;;4954666;29;20121;-64
2021/03/30 01:47:38;;;;;;;17.25;10.45;;;;;;;;;;4954875;29;20396;-69
2021/03/30 01:50:05;;;;;;;17.83;10.57;;;;;;;;;;4954580;29;20397;-63
2021/03/30 01:52:33;;;;;;;18.40;10.88;;;;;;;;;;4954628;29;20028;-68
2021/03/30 01:55:00;;;;;;;22.15;12.50;;;;;;;;;;4954209;29;20078;-70
2021/03/30 01:57:30;;;;;;;19.38;11.57;;;;;;;;;;4954659;29;20034;-69
2021/03/30 01:59:57;;;;;;;23.52;13.02;;;;;;;;;;4954536;29;20034;-64
2021/03/30 02:02:23;;;;;;;18.15;11.98;;;;;;;;;;4933977;29;20092;-64
2021/03/30 02:04:52;;;;;;;23.25;12.30;;;281.60;1459.20;;;;;;4946784;29;20167;-70
2021/03/30 02:07:18;;;;;;;18.15;10.38;;;281.80;1433.60;;;;;;4954335;29;20062;-69
2021/03/30 02:09:48;;;;;;;16.55;10.70;;;281.80;1433.60;;;;;;4954253;29;20119;-70
2021/03/30 02:12:16;;;;;;;16.00;10.15;;;;;;;;;;4953996;28;20061;-70
2021/03/30 02:14:43;;;;;;;20.17;12.65;;;;;;;;;;4954429;29;20478;-70
2021/03/30 02:17:28;;;;;;;22.58;12.77;;;281.90;1433.60;;;;;;4954489;29;20030;-68
2021/03/30 02:20:09;;;;;;;18.73;12.80;;;281.90;1433.60;;;;;;4954232;29;20059;-63
2021/03/30 02:22:50;;;;;;;20.10;13.18;;;281.90;1408.00;;;;;;4953891;29;20023;-69
2021/03/30 02:25:18;;;;;;;19.83;11.50;;;281.80;1433.60;;;;;;4954271;29;20042;-70
2021/03/30 02:27:47;;;;;;;23.70;12.85;;;256.80;1459.20;;;;;;4954069;29;20110;-62
2021/03/30 02:30:14;;;;;;;23.13;14.30;;;256.70;1459.20;;;;;;4954206;29;20035;-63
2021/03/30 02:32:42;;;;;;;24.63;15.27;;;256.90;1459.20;;;;;;4954115;29;20090;-69
2021/03/30 02:35:10;;;;;;;20.95;12.73;;;281.60;1459.20;;;;;;4954449;29;20024;-70
2021/03/30 02:37:36;;;;;;;18.67;11.90;;;256.80;1459.20;;;;;;4954011;29;20110;-62
2021/03/30 02:40:05;;;;;;;24.75;12.57;;;281.70;1459.20;;;;;;4954032;29;20031;-68
2021/03/30 02:42:32;;;;;;;16.58;10.63;;;256.90;1459.20;;;;;;4954122;29;20032;-64
2021/03/30 02:45:01;;;;;;;27.35;11.98;;;256.00;1561.60;;;;;;4954449;29;20029;-67
2021/03/30 02:47:27;;;;;;;22.10;12.25;;;;;;;;;;4954038;29;20015;-67
2021/03/30 02:49:54;;;;;;;23.42;13.70;;;;;;;;;;4952606;29;20024;-70
2021/03/30 02:52:23;;;;;;;19.52;11.30;;;231.10;1638.40;;;;;;4952830;29;20534;-70
2021/03/30 02:54:49;;;;;;;19.42;10.73;;;231.00;1638.40;;;;;;4952406;29;20097;-66
2021/03/30 02:57:16;;;;;;;18.92;11.43;;;;;;;;;;4952560;28;20039;-62
2021/03/30 02:59:43;;;;;;;15.18;10.07;;;;;;;;;;4953890;29;20498;-68
2021/03/30 03:02:09;;;;;;;19.00;11.02;;;;;;;;;;4953687;29;20030;-62
2021/03/30 03:04:35;;;;;;;15.35;9.82;;;;;;;;;;4953927;29;20118;-68
2021/03/30 03:07:02;;;;;;;14.35;8.85;;;;;;;;;;4953765;29;20431;-70
2021/03/30 03:09:29;;;;;;;16.90;11.23;;;;;;;;;;4953814;29;20031;-69
2021/03/30 03:11:56;;;;;;;16.23;9.95;;;;;;;;;;4953476;28;20046;-70
2021/03/30 03:14:23;;;;;;;14.18;9.40;;;;;;;;;;4953872;29;20118;-63
2021/03/30 03:16:49;;;;;;;18.08;10.90;;;;;;;;;;4953790;29;20031;-70
2021/03/30 03:19:16;;;;;;;14.52;9.05;;;;;;;;;;4953551;29;20027;-70
2021/03/30 03:21:43;;;;;;;17.10;8.95;;;;;;;;;;4953951;29;20020;-62
2021/03/30 03:24:10;;;;;;;17.50;9.75;;;;;;;;;;4953564;29;20302;-70
2021/03/30 03:26:38;;;;;;;15.27;9.65;;;;;;;;;;4954040;29;20356;-63
2021/03/30 03:29:10;;;;;;;16.77;10.65;;;;;;;;;;4952336;29;20482;-70
2021/03/30 03:31:36;;;;;;;16.30;9.45;;;;;;;;;;4953540;29;20118;-69
2021/03/30 03:34:02;;;;;;;17.10;10.75;;;230.90;1612.80;;;;;;4953671;28;20343;-67
2021/03/30 03:36:37;;;;;;;14.48;9.73;;;230.70;1638.40;;;;;;4957238;29;20091;-69
2021/03/30 03:39:05;;;;;;;15.05;10.27;;;231.10;1587.20;;;;;;4957064;29;20082;-63
2021/03/30 03:41:31;;;;;;;14.13;10.50;;;231.10;1587.20;;;;;;4957233;29;20023;-69
2021/03/30 03:43:56;;;;;;;12.95;9.57;;;231.10;1587.20;;;;;;4957069;29;20082;-69
2021/03/30 03:46:22;;;;;;;18.77;11.57;;;231.30;1561.60;;;;;;4956833;29;20060;-69
2021/03/30 03:48:48;;;;;;;20.42;11.95;;;256.00;1561.60;;;;;;4957039;29;20027;-70
2021/03/30 03:51:15;;;;;;;22.50;12.38;;;256.20;1536.00;;;;;;4956976;29;20023;-63
2021/03/30 03:53:42;;;;;;;22.58;11.45;;;256.10;1561.60;;;;;;4956798;29;20378;-62
2021/03/30 03:56:09;;;;;;;19.98;12.05;;;256.00;1536.00;;;;;;4956903;29;20027;-63
2021/03/30 03:58:40;;;;;;;29.08;15.43;;;256.00;1536.00;;;;;;4956660;29;20410;-63
2021/03/30 04:01:13;;;;;;;39.93;20.07;;;231.10;1561.60;;;;;;4956673;29;20455;-66
2021/03/30 04:03:57;;;;;;;39.50;19.10;;;231.00;1612.80;;;;;;4956580;29;20040;-69
2021/03/30 04:06:30;;;;;;;36.45;18.88;;;231.00;1587.20;;;;;;4956770;29;20442;-63
2021/03/30 04:08:59;;;;;;;35.75;19.33;;;231.10;1612.80;;;;;;4956494;29;20064;-63
2021/03/30 04:11:26;;;;;;;39.10;19.95;;;231.20;1587.20;;;;;;4956227;28;20047;-63
2021/03/30 04:13:52;;;;;;;32.17;20.40;;;256.00;1587.20;;;;;;4956556;29;20113;-69
2021/03/30 04:16:18;;;;;;;32.83;20.77;;;231.20;1587.20;;;;;;4956538;29;20034;-63
2021/03/30 04:18:44;;;;;;;32.22;20.05;;;231.20;1587.20;;;;;;4956304;29;20035;-63
2021/03/30 04:21:31;;;;;;;48.67;21.70;;;231.20;1587.20;;;;;;4956444;29;20027;-63
2021/03/30 04:23:58;;;;;;;38.40;19.88;;;256.20;1536.00;;;;;;4954447;29;20438;-66
2021/03/30 04:26:25;;;;;;;31.65;18.35;;;256.20;1536.00;;;;;;4956532;29;20094;-62
2021/03/30 04:28:51;;;;;;;36.45;17.67;;;256.00;1587.20;;;;;;4956284;29;20430;-69
2021/03/30 04:31:17;;;;;;;29.75;15.88;;;231.00;1612.80;;;;;;4956133;29;20027;-70
2021/03/30 04:33:43;;;;;;;29.13;16.05;;;;;;;;;;4956198;29;20027;-67
2021/03/30 04:36:09;;;;;;;29.23;16.77;;;230.50;1996.80;;;;;;4956023;29;20031;-70
2021/03/30 04:38:35;;;;;;;33.85;17.92;;;230.50;1740.80;;;;;;4955834;29;20023;-70
2021/03/30 04:41:01;;;;;;;37.85;20.75;;;205.60;1766.40;;;;;;4956189;29;20062;-70
2021/03/30 04:43:27;;;;;;;37.85;23.38;;;205.60;1766.40;;;;;;4955974;29;20526;-69
2021/03/30 04:45:52;;;;;;;53.10;27.30;;;205.70;1792.00;;;;;;4955981;28;20070;-70
2021/03/30 04:48:19;;;;;;;40.22;25.08;;;;;;;;;;4955702;29;20042;-62
2021/03/30 04:50:45;;;;;;;50.88;27.67;;;;;;;;;;4955809;29;20086;-69
2021/03/30 04:53:12;;;;;;;37.70;21.67;;;;;;;;;;4955660;29;20035;-70
2021/03/30 04:55:39;;;;;;;42.40;23.10;;;230.70;1689.60;;;;;;4955601;29;20023;-68
2021/03/30 04:58:05;;;;;;;37.70;19.10;;;230.80;1664.00;;;;;;4955729;29;20027;-70
2021/03/30 05:00:30;;;;;;;44.53;23.20;;;230.90;1664.00;;;;;;4955517;29;20046;-63
2021/03/30 05:02:56;;;;;;;45.22;23.58;;;230.90;1664.00;;;;;;4955606;29;20105;-65
2021/03/30 05:05:22;;;;;;;45.03;25.60;;;231.00;1664.00;;;;;;4955461;29;20055;-68
2021/03/30 05:07:48;;;;;;;49.08;28.08;;;230.90;1664.00;;;;;;4955624;29;20023;-70
2021/03/30 05:10:14;;;;;;;59.83;32.28;;;230.70;1715.20;;;;;;4954941;29;20023;-63
2021/03/30 05:12:40;;;;;;;81.10;41.03;;;230.70;1715.20;;;;;;4955196;28;20051;-67
2021/03/30 05:15:07;;;;;;;94.32;43.85;;;230.80;1689.60;;;;;;4955347;29;20043;-66
2021/03/30 05:17:34;;;;;;;91.60;45.47;;;230.70;1715.20;;;;;;4949382;29;20019;-67
2021/03/30 05:20:01;;;;;;;132.85;56.80;;;230.70;1715.20;;;;;;4934332;29;20046;-68
2021/03/30 05:22:26;;;;;;;130.40;54.22;;;230.70;1715.20;;;;;;4954209;29;20050;-70
2021/03/30 05:24:52;;;;;;;93.07;43.67;;;231.10;1664.00;;;;;;4954379;28;20061;-69
2021/03/30 05:27:18;;;;;;;105.85;47.67;;;231.20;1664.00;;;;;;4954307;29;20023;-65
2021/03/30 05:29:43;;;;;;;127.13;56.97;;;231.30;1664.00;;;;;;4954476;29;20448;-69
2021/03/30 05:32:14;;;;;;;78.50;39.78;;;231.30;1664.00;;;;;;4954205;29;20108;-69
2021/03/30 05:34:40;;;;;;;66.95;37.10;;;231.30;1664.00;;;;;;4954422;29;20110;-70
2021/03/30 05:37:07;;;;;;;74.50;40.33;;;;;;;;;;4954269;29;20027;-67
2021/03/30 05:39:33;;;;;;;59.22;33.53;;;231.30;1664.00;;;;;;4953906;29;20027;-69
2021/03/30 05:41:59;;;;;;;46.97;28.70;;;231.20;1689.60;;;;;;4953944;28;20161;-62
2021/03/30 05:44:27;;;;;;;43.95;27.63;;;231.10;1740.80;;;;;;4954031;29;20055;-69
2021/03/30 05:49:34;;;;;;;43.10;23.30;;;256.20;1689.60;;;;;;4946657;29;20027;-68
2021/03/30 05:52:01;;;;;;;35.67;23.70;;;256.20;1638.40;;;;;;4953976;29;20011;-62
2021/03/30 05:54:30;;;;;;;44.83;24.30;;;256.10;1664.00;;;;;;4953977;29;20118;-64
2021/03/30 05:56:58;;;;;;;50.58;27.30;;;256.10;1689.60;;;;;;4953587;28;20175;-67
2021/03/30 05:59:24;;;;;;;61.03;31.17;;;256.30;1664.00;;;;;;4953902;29;20031;-67
2021/03/30 06:01:50;;;;;;;59.58;33.97;;;256.10;1715.20;;;;;;4953810;29;20020;-68
2021/03/30 06:04:18;;;;;;;60.97;33.55;;;256.30;1689.60;;;;;;4953728;29;20031;-67
2021/03/30 06:06:45;;;;;;;52.47;31.17;;;256.70;1612.80;;;;;;4953880;29;20029;-67
2021/03/30 06:09:11;;;;;;;49.28;30.50;;;256.70;1638.40;;;;;;4953544;29;20020;-66
2021/03/30 06:11:36;;;;;;;54.33;30.45;;;256.60;1638.40;;;;;;4953919;28;20116;-68
2021/03/30 06:14:02;;;;;;;53.17;29.92;;;256.80;1664.00;;;;;;4953835;29;20490;-67
2021/03/30 06:16:36;;;;;;;50.67;31.40;;;256.80;1612.80;;;;;;4952925;29;20035;-68
2021/03/30 06:19:12;;;;;;;47.72;30.08;;;282.10;1561.60;;;;;;4950679;29;20093;-69
2021/03/30 06:21:46;;;;;;;64.22;36.85;;;281.70;1612.80;;;;;;4953229;29;20130;-67
2021/03/30 06:24:21;;;;;;;99.20;53.58;;;281.80;1612.80;;;;;;4953541;29;20074;-67
2021/03/30 06:27:13;;;;;;;41.45;24.27;;;282.10;1587.20;;;;;;4953577;29;20479;-68
2021/03/30 06:29:40;;;;;;;47.70;28.00;;;282.10;1587.20;;;;;;4929873;29;20039;-67
2021/03/30 06:32:13;;;;;;;137.32;69.18;;;282.00;1612.80;;;;;;4953342;29;20110;-69
2021/03/30 06:34:41;;;;;;;174.48;94.88;;;282.20;1587.20;;;;;;4953112;29;20475;-68
2021/03/30 06:37:30;;;;;;;67.82;38.60;;;307.30;1587.20;;;;;;4953594;29;20434;-68
2021/03/30 06:40:04;;;;;;;62.03;36.67;;;282.50;1561.60;;;;;;4953270;29;20055;-67
2021/03/30 06:45:10;;;;;;;65.80;33.90;;;307.20;1612.80;;;;;;4953628;29;20510;-65
2021/03/30 06:47:37;;;;;;;52.25;29.20;;;307.80;1561.60;;;;;;4943685;29;20139;-67
2021/03/30 06:50:15;;;;;;;73.85;43.38;;;332.80;1536.00;;;;;;4949819;29;20030;-64
2021/03/30 06:52:41;;;;;;;61.50;35.83;;;333.10;1510.40;;;;;;4953299;29;20027;-65
2021/03/30 06:55:08;;;;;;;60.65;34.67;;;333.20;1459.20;;;;;;4953186;29;20027;-65
2021/03/30 06:57:40;;;;;;;64.28;39.38;;;333.30;1459.20;;;;;;4953382;29;20118;-66
2021/03/30 07:00:11;;;;;;;76.45;44.03;;;333.40;1484.80;;;;;;4953103;29;20031;-66
2021/03/30 07:02:53;;;;;;;88.53;49.43;;;333.50;1433.60;;;;;;4953242;29;20095;-67
2021/03/30 07:05:30;;;;;;;99.20;57.08;;;333.60;1433.60;;;;;;4953184;29;20027;-60
2021/03/30 07:08:07;;;;;;;119.85;65.22;;;333.40;1433.60;;;;;;4953332;29;20082;-61
2021/03/30 07:10:35;;;;;;;130.57;80.05;;;333.50;1459.20;;;;;;4955551;28;20045;-63
2021/03/30 07:13:02;;;;;;;117.78;75.80;;;333.60;1433.60;;;;;;4957050;29;20040;-66
2021/03/30 07:15:28;;;;;;;120.18;79.47;;;333.60;1459.20;;;;;;4956816;29;20237;-65
2021/03/30 07:18:11;;;;;;;96.32;60.80;;;333.70;1459.20;;;;;;4952219;29;20054;-64
2021/03/30 07:20:44;;;;;;;85.95;54.17;;;333.70;1433.60;;;;;;4956484;29;20038;-65
2021/03/30 07:23:13;;;;;;;79.93;44.50;;;358.80;1408.00;;;;;;4956871;29;20498;-67
2021/03/30 07:25:58;;;;;;;79.43;48.22;;;358.80;1382.40;;;;;;4956628;29;20026;-70
2021/03/30 07:28:28;;;;;;;55.75;34.15;;;358.80;1382.40;;;;;;4956636;29;20030;-64
2021/03/30 07:31:01;;;;;;;50.88;30.17;;;358.90;1382.40;;;;;;4956504;29;20027;-69
2021/03/30 07:33:35;;;;;;;55.88;33.35;;;358.80;1382.40;;;;;;4956505;29;20162;-69
2021/03/30 07:36:03;;;;;;;51.15;30.73;;;358.90;1382.40;;;;;;4956411;29;20915;-67
2021/03/30 07:38:39;;;;;;;44.42;28.10;;;359.30;1331.20;;;;;;4956403;29;20027;-70
2021/03/30 07:41:05;;;;;;;38.28;22.70;;;384.00;1356.80;;;;;;4956239;29;20046;-69
2021/03/30 07:43:31;;;;;;;46.65;27.42;;;384.30;1305.60;;;;;;4956372;29;20031;-70
2021/03/30 07:46:00;;;;;;;40.85;26.58;;;384.40;1331.20;;;;;;4956301;29;20023;-69
2021/03/30 07:48:30;;;;;;;32.55;18.63;;;384.50;1331.20;;;;;;4943211;29;20015;-70
2021/03/30 07:51:10;;;;;;;24.83;16.30;;;384.70;1305.60;;;;;;4956363;29;20023;-70
2021/03/30 07:53:41;;;;;;;24.67;14.63;;;384.90;1305.60;;;;;;4956319;29;20032;-68
2021/03/30 07:56:30;;;;;;;26.92;17.92;;;409.60;1305.60;;;;;;4955928;29;20023;-69
2021/03/30 07:58:57;;;;;;;30.02;18.42;;;409.70;1305.60;;;;;;4954717;29;20183;-70
2021/03/30 08:01:25;;;;;;;23.77;15.05;;;410.00;1254.40;;;;;;4956235;29;20023;-69
2021/03/30 08:03:53;;;;;;;27.27;18.98;;;410.00;1254.40;;;;;;4956385;29;20022;-61
2021/03/30 08:06:22;;;;;;;29.08;18.67;;;410.00;1254.40;;;;;;4956288;29;20028;-65
2021/03/30 08:09:00;;;;;;;32.22;22.08;;;410.20;1254.40;;;;;;4956192;29;20035;-62
2021/03/30 08:11:41;;;;;;;40.88;25.33;;;435.20;1228.80;;;;;;4955924;28;20126;-67
2021/03/30 08:14:09;;;;;;;26.63;15.57;;;435.60;1203.20;;;;;;4956300;29;20449;-69
2021/03/30 08:16:36;;;;;;;29.65;17.02;;;435.80;1152.00;;;;;;4954908;29;20363;-69
2021/03/30 08:19:09;;;;;;;20.40;12.15;;;435.80;1177.60;;;;;;4953189;29;20360;-68
2021/03/30 08:21:57;;;;;;;23.00;13.07;;;435.80;1100.80;;;;;;4955452;28;20035;-63
2021/03/30 08:24:43;;;;;;;20.08;12.18;;;436.00;1100.80;;;;;;4955547;29;20051;-66
2021/03/30 08:27:31;;;;;;;57.05;29.85;;;436.00;1100.80;;;;;;4955546;29;20094;-66
2021/03/30 08:30:00;;;;;;;33.75;16.60;;;436.10;1100.80;;;;;;4955379;29;20033;-62
2021/03/30 08:32:28;;;;;;;23.17;13.88;;;460.90;1126.40;;;;;;4955328;29;20024;-62
2021/03/30 08:34:54;;;;;;;42.65;15.85;;;461.10;1075.20;;;;;;4955458;29;20573;-69
2021/03/30 08:37:20;;;;;;;25.25;14.35;;;461.20;1100.80;;;;;;4955369;29;20106;-69
2021/03/30 08:39:46;;;;;;;31.27;13.30;;;461.10;1075.20;;;;;;4955063;29;20027;-61
2021/03/30 08:42:17;;;;;;;22.02;12.00;;;461.10;1075.20;;;;;;4955186;29;20042;-61
2021/03/30 08:44:56;;;;;;;30.25;15.23;;;461.20;1049.60;;;;;;4955258;29;20507;-64
2021/03/30 08:47:25;;;;;;;32.78;16.60;;;461.10;1049.60;;;;;;4947883;29;20038;-63
2021/03/30 08:49:51;;;;;;;33.45;14.70;;;461.20;1049.60;;;;;;4950202;29;20128;-66
2021/03/30 08:52:18;;;;;;;20.10;12.40;;;461.40;1024.00;;;;;;4955226;29;20074;-62
2021/03/30 08:54:54;;;;;;;18.85;10.00;;;461.40;1049.60;;;;;;4955076;29;20053;-62
2021/03/30 08:57:35;;;;;;;34.60;15.32;;;461.50;1049.60;;;;;;4955025;29;20118;-66
2021/03/30 09:00:05;;;;;;;22.47;10.47;;;461.60;1049.60;;;;;;4954974;29;20043;-65
2021/03/30 09:02:31;;;;;;;22.85;14.35;;;461.70;1024.00;;;;;;4954935;29;20050;-65
2021/03/30 09:04:57;;;;;;;24.80;14.65;;;461.40;1024.00;;;;;;4955019;29;20395;-62
2021/03/30 09:07:23;;;;;;;28.30;15.40;;;461.50;1024.00;;;;;;4954730;29;20019;-65
2021/03/30 09:09:49;;;;;;;24.10;12.68;;;461.50;1024.00;;;;;;4954993;29;20054;-62
2021/03/30 09:12:18;;;;;;;23.52;12.95;;;461.70;1024.00;;;;;;4954074;28;20423;-61
2021/03/30 09:15:08;;;;;;;17.75;10.38;;;486.40;998.40;;;;;;4954873;29;20073;-61
2021/03/30 09:17:34;;;;;;;33.05;12.20;;;486.40;998.40;;;;;;4950577;29;20019;-63
2021/03/30 09:20:01;;;;;;;26.13;12.40;;;486.50;972.80;;;;;;4954875;29;20126;-63
2021/03/30 09:22:40;;;;;;;20.33;12.10;;;461.70;972.80;;;;;;4947457;29;20094;-61
2021/03/30 09:27:43;;;;;;;39.50;19.70;;;461.70;1024.00;;;;;;4954495;29;20137;-60
2021/03/30 09:30:18;;;;;;;21.02;13.13;;;461.70;1024.00;;;;;;4954544;29;20023;-61
2021/03/30 09:32:46;;;;;;;17.52;11.02;;;486.40;998.40;;;;;;4953495;28;20025;-61
2021/03/30 09:35:15;;;;;;;28.38;14.48;;;486.40;998.40;;;;;;4954458;29;20019;-63
2021/03/30 09:37:45;;;;;;;22.00;11.80;;;486.70;972.80;;;;;;4954309;29;20034;-68
2021/03/30 09:40:19;;;;;;;13.48;8.68;;;486.80;972.80;;;;;;4947702;29;20042;-62
2021/03/30 09:42:45;;;;;;;23.55;13.35;;;486.80;947.20;;;;;;4954056;29;20478;-68
2021/03/30 09:45:14;;;;;;;21.20;10.18;;;487.10;947.20;;;;;;4954225;29;20046;-61
2021/03/30 09:47:41;;;;;;;14.88;8.25;;;487.30;896.00;;;;;;4944543;29;20031;-61
2021/03/30 09:50:08;;;;;;;23.88;12.95;;;487.30;1152.00;;;;;;4951439;29;20039;-66
2021/03/30 09:52:37;;;;;;;17.20;10.25;;;512.30;947.20;;;;;;4953972;29;20494;-65
2021/03/30 09:55:04;;;;;;;20.20;8.77;;;512.40;896.00;;;;;;4953959;29;20028;-62
2021/03/30 09:57:31;;;;;;;16.20;9.20;;;512.40;896.00;;;;;;4953911;29;20015;-61
2021/03/30 09:59:58;;;;;;;23.38;11.35;;;512.30;896.00;;;;;;4953933;29;20073;-69
2021/03/30 10:02:28;;;;;;;17.23;9.63;;;512.30;896.00;;;;;;4953936;29;20494;-62
2021/03/30 10:04:56;;;;;;;27.20;15.93;;;512.50;896.00;;;;;;4953923;29;20110;-68
2021/03/30 10:07:23;;;;;;;13.88;8.80;;;512.70;896.00;;;;;;4953765;29;20027;-62
2021/03/30 10:10:07;;;;;;;23.25;10.90;;;512.80;844.80;;;;;;4953891;29;20101;-63
2021/03/30 10:12:38;;;;;;;18.13;11.38;;;537.70;870.40;;;;;;4953204;28;20051;-62
2021/03/30 10:15:06;;;;;;;25.70;12.93;;;538.40;844.80;;;;;;4953820;29;20304;-62
2021/03/30 10:17:32;;;;;;;25.70;9.98;;;538.20;870.40;;;;;;4951907;29;20035;-67
2021/03/30 10:20:00;;;;;;;24.50;10.43;;;537.90;870.40;;;;;;4953858;29;20037;-67
2021/03/30 10:22:32;;;;;;;23.63;10.20;;;537.80;870.40;;;;;;4953706;29;20558;-65
2021/03/30 10:25:33;;;;;;;28.77;9.45;;;537.70;896.00;;;;;;4953329;29;20077;-67
2021/03/30 10:28:00;;;;;;;27.67;12.73;;;512.90;844.80;;;;;;4894247;29;20020;-66
2021/03/30 10:30:33;;;;;;;21.60;9.68;;;512.90;844.80;;;;;;4894337;29;20040;-62
2021/03/30 10:33:03;;;;;;;23.17;9.48;;;512.90;844.80;;;;;;4894324;29;20480;-67
2021/03/30 10:35:30;;;;;;;20.45;10.25;;;512.90;844.80;;;;;;4894379;29;20033;-62
2021/03/30 10:37:56;;;;;;;17.00;9.80;;;512.90;844.80;;;;;;4893968;29;20088;-66
2021/03/30 10:40:33;;;;;;;12.98;7.38;;;512.80;844.80;;;;;;4894015;29;20048;-65
2021/03/30 10:43:20;;;;;;;24.70;9.75;;;512.60;844.80;;;;;;4880717;29;20033;-66
2021/03/30 10:45:47;;;;;;;15.70;8.95;;;512.00;896.00;;;;;;4898081;29;20029;-68
2021/03/30 10:48:12;;;;;;;14.82;8.82;;;512.20;870.40;;;;;;4897834;29;20127;-66
2021/03/30 10:50:39;;;;;;;22.20;10.38;;;487.30;896.00;;;;;;4904676;29;20115;-65
2021/03/30 10:53:06;;;;;;;19.95;9.50;;;487.30;896.00;;;;;;4904245;29;20034;-66
2021/03/30 10:55:32;;;;;;;26.02;11.50;;;512.00;870.40;;;;;;4897766;29;20568;-66
2021/03/30 10:57:58;;;;;;;14.93;8.85;;;487.10;896.00;;;;;;4897817;29;20048;-64
2021/03/30 11:00:24;;;;;;;21.17;10.45;;;487.10;921.60;;;;;;4897586;29;20044;-62
2021/03/30 11:02:50;;;;;;;20.40;12.63;;;487.00;921.60;;;;;;4949423;29;20106;-66
2021/03/30 11:05:17;;;;;;;18.58;11.07;;;487.00;947.20;;;;;;4956821;29;20098;-65
2021/03/30 11:07:43;;;;;;;24.23;10.45;;;486.90;947.20;;;;;;4957136;29;20074;-67
2021/03/30 11:10:11;;;;;;;19.92;9.82;;;486.90;947.20;;;;;;4956971;29;20035;-64
2021/03/30 11:12:39;;;;;;;17.95;10.50;;;486.80;972.80;;;;;;4956719;28;20058;-68
2021/03/30 11:15:06;;;;;;;22.23;11.60;;;486.80;947.20;;;;;;4956828;29;20023;-66
2021/03/30 11:17:32;;;;;;;16.88;10.18;;;487.00;947.20;;;;;;4953285;29;20113;-60
2021/03/30 11:19:58;;;;;;;29.55;12.25;;;486.70;972.80;;;;;;4956897;29;20036;-64
2021/03/30 11:22:23;;;;;;;26.35;12.70;;;486.80;972.80;;;;;;4956734;29;20032;-62
2021/03/30 11:24:54;;;;;;;22.63;12.75;;;486.80;972.80;;;;;;4942999;29;20043;-64
2021/03/30 11:27:19;;;;;;;26.08;12.57;;;486.80;972.80;;;;;;4940336;29;20026;-68
2021/03/30 11:30:09;;;;;;;23.35;16.08;;;486.80;972.80;;;;;;4939504;29;20027;-66
2021/03/30 11:35:23;;;;;;;17.40;11.83;;;486.80;972.80;;;;;;4939098;29;20035;-61
2021/03/30 11:40:14;;;;;;;24.35;11.98;;;486.40;1024.00;;;;;;4946483;29;20492;-67
2021/03/30 11:42:40;;;;;;;20.02;11.07;;;486.40;1024.00;;;;;;4952452;29;20036;-67
2021/03/30 11:45:07;;;;;;;16.88;11.40;;;486.40;1024.00;;;;;;4954339;29;20117;-66
2021/03/30 11:47:32;;;;;;;20.98;10.57;;;486.60;1024.00;;;;;;4956158;29;20110;-67
2021/03/30 11:49:58;;;;;;;18.15;8.10;;;486.70;998.40;;;;;;4956486;29;20484;-67
2021/03/30 11:52:24;;;;;;;29.13;12.93;;;486.40;1024.00;;;;;;4956734;29;20030;-68
2021/03/30 11:54:50;;;;;;;25.95;13.18;;;486.60;1024.00;;;;;;4938140;29;20063;-67
2021/03/30 11:57:18;;;;;;;21.60;10.90;;;486.70;998.40;;;;;;4955778;29;20024;-67
2021/03/30 11:59:44;;;;;;;37.95;11.88;;;486.80;998.40;;;;;;4955534;29;20042;-65
2021/03/30 12:02:09;;;;;;;17.08;10.63;;;487.10;998.40;;;;;;4956057;29;20023;-67
2021/03/30 12:04:35;;;;;;;21.77;10.80;;;487.30;972.80;;;;;;4955718;29;20042;-66
2021/03/30 12:07:01;;;;;;;17.27;11.85;;;487.30;998.40;;;;;;4955984;29;20024;-68
2021/03/30 12:09:26;;;;;;;20.90;9.18;;;512.00;998.40;;;;;;4955883;29;20442;-66
2021/03/30 12:11:52;;;;;;;16.23;8.63;;;512.00;998.40;;;;;;4955648;28;20039;-68
2021/03/30 12:14:18;;;;;;;20.27;10.80;;;487.30;998.40;;;;;;4948190;29;20035;-68
2021/03/30 12:16:46;;;;;;;17.45;10.23;;;512.20;998.40;;;;;;4954023;29;20423;-67
2021/03/30 12:19:14;;;;;;;20.60;8.43;;;512.50;972.80;;;;;;4954203;29;20019;-67
2021/03/30 12:21:40;;;;;;;17.92;9.32;;;537.60;972.80;;;;;;4955493;29;20081;-67
2021/03/30 12:24:06;;;;;;;14.90;8.63;;;538.10;972.80;;;;;;4955571;29;20019;-65
2021/03/30 12:26:32;;;;;;;13.25;7.03;;;538.50;921.60;;;;;;4955418;29;20023;-66
2021/03/30 12:29:00;;;;;;;21.38;11.80;;;538.50;896.00;;;;;;4955376;29;20031;-66
2021/03/30 12:31:26;;;;;;;21.60;9.88;;;538.50;896.00;;;;;;4955381;29;20059;-65
2021/03/30 12:33:52;;;;;;;12.88;8.90;;;538.40;921.60;;;;;;4955300;29;20501;-67
2021/03/30 12:36:17;;;;;;;17.42;9.07;;;538.40;896.00;;;;;;4955452;29;20024;-67
2021/03/30 12:38:43;;;;;;;16.83;10.00;;;563.40;921.60;;;;;;4955227;29;20106;-68
2021/03/30 12:41:09;;;;;;;16.05;9.35;;;563.50;921.60;;;;;;4955392;28;20031;-67
2021/03/30 12:43:35;;;;;;;17.88;8.63;;;563.50;921.60;;;;;;4953699;29;20042;-68
2021/03/30 12:46:00;;;;;;;18.75;8.85;;;563.30;921.60;;;;;;4955457;29;20034;-67
2021/03/30 12:48:26;;;;;;;15.32;7.95;;;563.20;921.60;;;;;;4942903;29;20023;-67